sensor_id;sensor_type;location;lat;lon;timestamp;P1;durP1;ratioP1;P2;durP2;ratioP2
8423;SDS011;4249;49.072;9.770;2022-08-21T00:01:41;6.67;;;3.07;;
8423;SDS011;4249;49.072;9.770;2022-08-21T00:04:28;3.43;;;2.90;;
8423;SDS011;4249;49.072;9.770;2022-08-21T00:07:15;4.17;;;3.00;;
8423;SDS011;4249;49.072;9.770;2022-08-21T00:10:04;4.73;;;2.73;;
8423;SDS011;4249;49.072;9.770;2022-08-21T00:12:53;3.57;;;3.20;;
8423;SDS011;4249;49.072;9.770;2022-08-21T00:15:40;5.27;;;3.10;;
8423;SDS011;4249;49.072;9.770;2022-08-21T00:18:28;4.20;;;3.23;;
8423;SDS011;4249;49.072;9.770;2022-08-21T00:21:16;5.20;;;3.20;;
8423;SDS011;4249;49.072;9.770;2022-08-21T00:24:03;3.80;;;3.27;;
8423;SDS011;4249;49.072;9.770;2022-08-21T00:26:51;4.80;;;3.30;;
8423;SDS011;4249;49.072;9.770;2022-08-21T00:29:40;4.90;;;3.20;;
8423;SDS011;4249;49.072;9.770;2022-08-21T00:32:27;3.80;;;3.47;;
8423;SDS011;4249;49.072;9.770;2022-08-21T00:35:16;3.67;;;3.37;;
8423;SDS011;4249;49.072;9.770;2022-08-21T00:38:05;5.33;;;3.47;;
8423;SDS011;4249;49.072;9.770;2022-08-21T00:40:55;4.80;;;3.40;;
8423;SDS011;4249;49.072;9.770;2022-08-21T00:43:44;4.97;;;3.57;;
8423;SDS011;4249;49.072;9.770;2022-08-21T00:46:33;5.80;;;3.70;;
8423;SDS011;4249;49.072;9.770;2022-08-21T00:49:20;6.93;;;3.60;;
8423;SDS011;4249;49.072;9.770;2022-08-21T00:52:09;3.90;;;3.60;;
8423;SDS011;4249;49.072;9.770;2022-08-21T00:54:58;4.33;;;3.90;;
8423;SDS011;4249;49.072;9.770;2022-08-21T00:57:48;5.30;;;4.40;;
8423;SDS011;4249;49.072;9.770;2022-08-21T01:00:41;4.90;;;4.40;;
8423;SDS011;4249;49.072;9.770;2022-08-21T01:03:32;5.90;;;3.87;;
8423;SDS011;4249;49.072;9.770;2022-08-21T01:06:19;4.50;;;3.70;;
8423;SDS011;4249;49.072;9.770;2022-08-21T01:09:07;4.97;;;4.47;;
8423;SDS011;4249;49.072;9.770;2022-08-21T01:11:54;5.10;;;4.60;;
8423;SDS011;4249;49.072;9.770;2022-08-21T01:14:41;7.37;;;4.50;;
8423;SDS011;4249;49.072;9.770;2022-08-21T01:17:29;5.07;;;4.13;;
8423;SDS011;4249;49.072;9.770;2022-08-21T01:20:20;6.63;;;4.53;;
8423;SDS011;4249;49.072;9.770;2022-08-21T01:23:09;5.63;;;4.10;;
8423;SDS011;4249;49.072;9.770;2022-08-21T01:25:56;5.23;;;4.20;;
8423;SDS011;4249;49.072;9.770;2022-08-21T01:28:45;5.33;;;4.63;;
8423;SDS011;4249;49.072;9.770;2022-08-21T01:31:37;7.77;;;4.63;;
8423;SDS011;4249;49.072;9.770;2022-08-21T01:34:24;7.10;;;4.57;;
8423;SDS011;4249;49.072;9.770;2022-08-21T01:37:12;5.30;;;4.80;;
8423;SDS011;4249;49.072;9.770;2022-08-21T01:40:03;8.13;;;6.10;;
8423;SDS011;4249;49.072;9.770;2022-08-21T01:42:53;9.43;;;7.47;;
8423;SDS011;4249;49.072;9.770;2022-08-21T01:45:40;9.13;;;6.87;;
8423;SDS011;4249;49.072;9.770;2022-08-21T01:48:27;7.97;;;7.17;;
8423;SDS011;4249;49.072;9.770;2022-08-21T01:51:15;13.50;;;7.60;;
8423;SDS011;4249;49.072;9.770;2022-08-21T01:54:02;8.97;;;6.83;;
8423;SDS011;4249;49.072;9.770;2022-08-21T01:56:51;7.67;;;6.87;;
8423;SDS011;4249;49.072;9.770;2022-08-21T01:59:40;10.87;;;6.07;;
8423;SDS011;4249;49.072;9.770;2022-08-21T02:02:27;7.50;;;6.10;;
8423;SDS011;4249;49.072;9.770;2022-08-21T02:05:15;6.73;;;5.63;;
8423;SDS011;4249;49.072;9.770;2022-08-21T02:08:03;7.00;;;5.27;;
8423;SDS011;4249;49.072;9.770;2022-08-21T02:10:53;6.63;;;5.83;;
8423;SDS011;4249;49.072;9.770;2022-08-21T02:13:41;7.97;;;5.37;;
8423;SDS011;4249;49.072;9.770;2022-08-21T02:16:29;7.00;;;5.90;;
8423;SDS011;4249;49.072;9.770;2022-08-21T02:19:16;10.90;;;6.03;;
8423;SDS011;4249;49.072;9.770;2022-08-21T02:22:03;7.20;;;5.80;;
8423;SDS011;4249;49.072;9.770;2022-08-21T02:24:50;9.13;;;5.53;;
8423;SDS011;4249;49.072;9.770;2022-08-21T02:27:39;7.17;;;6.47;;
8423;SDS011;4249;49.072;9.770;2022-08-21T02:30:29;8.00;;;5.93;;
8423;SDS011;4249;49.072;9.770;2022-08-21T02:33:17;6.33;;;5.70;;
8423;SDS011;4249;49.072;9.770;2022-08-21T02:36:05;7.70;;;6.10;;
8423;SDS011;4249;49.072;9.770;2022-08-21T02:38:53;6.80;;;5.63;;
8423;SDS011;4249;49.072;9.770;2022-08-21T02:41:41;7.10;;;5.43;;
8423;SDS011;4249;49.072;9.770;2022-08-21T02:44:28;7.57;;;6.17;;
8423;SDS011;4249;49.072;9.770;2022-08-21T02:47:17;6.60;;;5.33;;
8423;SDS011;4249;49.072;9.770;2022-08-21T02:50:05;6.63;;;5.17;;
8423;SDS011;4249;49.072;9.770;2022-08-21T02:52:54;5.83;;;5.13;;
8423;SDS011;4249;49.072;9.770;2022-08-21T02:55:42;5.67;;;4.63;;
8423;SDS011;4249;49.072;9.770;2022-08-21T02:58:31;6.20;;;4.77;;
8423;SDS011;4249;49.072;9.770;2022-08-21T03:01:19;7.37;;;5.57;;
8423;SDS011;4249;49.072;9.770;2022-08-21T03:04:08;6.67;;;5.97;;
8423;SDS011;4249;49.072;9.770;2022-08-21T03:06:55;7.07;;;5.70;;
8423;SDS011;4249;49.072;9.770;2022-08-21T03:09:43;6.80;;;6.07;;
8423;SDS011;4249;49.072;9.770;2022-08-21T03:12:30;6.17;;;5.57;;
8423;SDS011;4249;49.072;9.770;2022-08-21T03:15:19;6.87;;;6.00;;
8423;SDS011;4249;49.072;9.770;2022-08-21T03:18:09;6.77;;;5.73;;
8423;SDS011;4249;49.072;9.770;2022-08-21T03:20:58;7.93;;;5.73;;
8423;SDS011;4249;49.072;9.770;2022-08-21T03:23:46;9.87;;;6.23;;
8423;SDS011;4249;49.072;9.770;2022-08-21T03:26:33;8.50;;;6.57;;
8423;SDS011;4249;49.072;9.770;2022-08-21T03:29:21;7.30;;;6.60;;
8423;SDS011;4249;49.072;9.770;2022-08-21T03:32:09;7.80;;;6.80;;
8423;SDS011;4249;49.072;9.770;2022-08-21T03:34:56;8.07;;;6.40;;
8423;SDS011;4249;49.072;9.770;2022-08-21T03:37:45;7.07;;;5.77;;
8423;SDS011;4249;49.072;9.770;2022-08-21T03:40:33;8.10;;;6.27;;
8423;SDS011;4249;49.072;9.770;2022-08-21T03:43:20;9.33;;;5.93;;
8423;SDS011;4249;49.072;9.770;2022-08-21T03:46:08;7.27;;;6.20;;
8423;SDS011;4249;49.072;9.770;2022-08-21T03:48:56;8.13;;;6.40;;
8423;SDS011;4249;49.072;9.770;2022-08-21T03:51:43;7.67;;;6.30;;
8423;SDS011;4249;49.072;9.770;2022-08-21T03:54:32;7.57;;;6.07;;
8423;SDS011;4249;49.072;9.770;2022-08-21T03:57:19;6.80;;;6.03;;
8423;SDS011;4249;49.072;9.770;2022-08-21T04:00:07;7.27;;;6.53;;
8423;SDS011;4249;49.072;9.770;2022-08-21T04:02:57;7.63;;;6.67;;
8423;SDS011;4249;49.072;9.770;2022-08-21T04:05:44;7.87;;;6.53;;
8423;SDS011;4249;49.072;9.770;2022-08-21T04:08:32;8.53;;;6.60;;
8423;SDS011;4249;49.072;9.770;2022-08-21T04:11:20;9.60;;;6.67;;
8423;SDS011;4249;49.072;9.770;2022-08-21T04:14:08;9.63;;;6.17;;
8423;SDS011;4249;49.072;9.770;2022-08-21T04:16:55;7.60;;;6.60;;
8423;SDS011;4249;49.072;9.770;2022-08-21T04:19:42;6.77;;;5.90;;
8423;SDS011;4249;49.072;9.770;2022-08-21T04:22:30;7.13;;;5.70;;
8423;SDS011;4249;49.072;9.770;2022-08-21T04:25:17;8.77;;;6.80;;
8423;SDS011;4249;49.072;9.770;2022-08-21T04:28:07;7.30;;;6.60;;
8423;SDS011;4249;49.072;9.770;2022-08-21T04:30:55;9.80;;;6.73;;
8423;SDS011;4249;49.072;9.770;2022-08-21T04:33:42;7.73;;;6.10;;
8423;SDS011;4249;49.072;9.770;2022-08-21T04:36:30;7.77;;;6.17;;
8423;SDS011;4249;49.072;9.770;2022-08-21T04:39:17;6.83;;;6.13;;
8423;SDS011;4249;49.072;9.770;2022-08-21T04:42:04;9.27;;;7.43;;
8423;SDS011;4249;49.072;9.770;2022-08-21T04:44:54;8.23;;;6.33;;
8423;SDS011;4249;49.072;9.770;2022-08-21T04:47:42;9.10;;;7.10;;
8423;SDS011;4249;49.072;9.770;2022-08-21T04:50:31;10.00;;;7.47;;
8423;SDS011;4249;49.072;9.770;2022-08-21T04:53:24;9.27;;;6.83;;
8423;SDS011;4249;49.072;9.770;2022-08-21T04:56:19;8.13;;;6.47;;
8423;SDS011;4249;49.072;9.770;2022-08-21T04:59:11;9.10;;;6.57;;
8423;SDS011;4249;49.072;9.770;2022-08-21T05:02:04;7.03;;;6.30;;
8423;SDS011;4249;49.072;9.770;2022-08-21T05:04:52;7.13;;;6.37;;
8423;SDS011;4249;49.072;9.770;2022-08-21T05:07:41;6.60;;;5.87;;
8423;SDS011;4249;49.072;9.770;2022-08-21T05:10:29;6.30;;;5.70;;
8423;SDS011;4249;49.072;9.770;2022-08-21T05:13:18;7.30;;;6.63;;
8423;SDS011;4249;49.072;9.770;2022-08-21T05:16:06;7.77;;;6.47;;
8423;SDS011;4249;49.072;9.770;2022-08-21T05:18:55;6.10;;;5.50;;
8423;SDS011;4249;49.072;9.770;2022-08-21T05:21:43;6.93;;;5.30;;
8423;SDS011;4249;49.072;9.770;2022-08-21T05:24:32;4.50;;;4.10;;
8423;SDS011;4249;49.072;9.770;2022-08-21T05:27:20;5.80;;;5.20;;
8423;SDS011;4249;49.072;9.770;2022-08-21T05:30:08;6.23;;;4.97;;
8423;SDS011;4249;49.072;9.770;2022-08-21T05:32:57;6.70;;;4.70;;
8423;SDS011;4249;49.072;9.770;2022-08-21T05:35:49;5.57;;;5.03;;
8423;SDS011;4249;49.072;9.770;2022-08-21T05:38:36;5.60;;;5.10;;
8423;SDS011;4249;49.072;9.770;2022-08-21T05:41:24;5.47;;;4.73;;
8423;SDS011;4249;49.072;9.770;2022-08-21T05:44:11;4.80;;;4.30;;
8423;SDS011;4249;49.072;9.770;2022-08-21T05:47:02;6.40;;;5.57;;
8423;SDS011;4249;49.072;9.770;2022-08-21T05:49:51;6.90;;;5.30;;
8423;SDS011;4249;49.072;9.770;2022-08-21T05:52:39;8.23;;;6.03;;
8423;SDS011;4249;49.072;9.770;2022-08-21T05:55:27;7.30;;;6.60;;
8423;SDS011;4249;49.072;9.770;2022-08-21T05:58:15;7.70;;;6.47;;
8423;SDS011;4249;49.072;9.770;2022-08-21T06:01:05;10.63;;;7.40;;
8423;SDS011;4249;49.072;9.770;2022-08-21T06:03:54;9.33;;;7.33;;
8423;SDS011;4249;49.072;9.770;2022-08-21T06:06:41;11.10;;;7.27;;
8423;SDS011;4249;49.072;9.770;2022-08-21T06:09:30;9.50;;;6.93;;
8423;SDS011;4249;49.072;9.770;2022-08-21T06:12:17;8.67;;;7.13;;
8423;SDS011;4249;49.072;9.770;2022-08-21T06:15:04;11.23;;;6.60;;
8423;SDS011;4249;49.072;9.770;2022-08-21T06:17:52;8.00;;;6.53;;
8423;SDS011;4249;49.072;9.770;2022-08-21T06:20:40;10.40;;;6.33;;
8423;SDS011;4249;49.072;9.770;2022-08-21T06:23:28;6.43;;;5.27;;
8423;SDS011;4249;49.072;9.770;2022-08-21T06:26:16;6.50;;;4.35;;
8423;SDS011;4249;49.072;9.770;2022-08-21T06:29:03;4.68;;;3.63;;
8423;SDS011;4249;49.072;9.770;2022-08-21T06:31:51;6.03;;;3.80;;
8423;SDS011;4249;49.072;9.770;2022-08-21T06:34:38;5.45;;;3.00;;
8423;SDS011;4249;49.072;9.770;2022-08-21T06:37:26;3.80;;;3.40;;
8423;SDS011;4249;49.072;9.770;2022-08-21T06:40:14;3.28;;;2.97;;
8423;SDS011;4249;49.072;9.770;2022-08-21T06:43:07;3.50;;;3.10;;
8423;SDS011;4249;49.072;9.770;2022-08-21T06:45:57;3.05;;;2.78;;
8423;SDS011;4249;49.072;9.770;2022-08-21T06:48:44;3.55;;;2.70;;
8423;SDS011;4249;49.072;9.770;2022-08-21T06:51:32;4.50;;;2.70;;
8423;SDS011;4249;49.072;9.770;2022-08-21T06:54:19;4.68;;;2.58;;
8423;SDS011;4249;49.072;9.770;2022-08-21T06:57:06;4.85;;;2.92;;
8423;SDS011;4249;49.072;9.770;2022-08-21T06:59:55;4.93;;;3.17;;
8423;SDS011;4249;49.072;9.770;2022-08-21T07:02:42;4.13;;;2.72;;
8423;SDS011;4249;49.072;9.770;2022-08-21T07:05:30;4.20;;;2.88;;
8423;SDS011;4249;49.072;9.770;2022-08-21T07:08:17;3.20;;;2.78;;
8423;SDS011;4249;49.072;9.770;2022-08-21T07:11:06;4.45;;;3.17;;
8423;SDS011;4249;49.072;9.770;2022-08-21T07:13:57;3.97;;;2.80;;
8423;SDS011;4249;49.072;9.770;2022-08-21T07:16:46;4.10;;;3.70;;
8423;SDS011;4249;49.072;9.770;2022-08-21T07:19:33;4.55;;;3.67;;
8423;SDS011;4249;49.072;9.770;2022-08-21T07:22:20;4.55;;;3.72;;
8423;SDS011;4249;49.072;9.770;2022-08-21T07:25:08;5.30;;;3.83;;
8423;SDS011;4249;49.072;9.770;2022-08-21T07:27:55;7.50;;;4.10;;
8423;SDS011;4249;49.072;9.770;2022-08-21T07:30:43;4.63;;;4.00;;
8423;SDS011;4249;49.072;9.770;2022-08-21T07:33:33;5.07;;;3.47;;
8423;SDS011;4249;49.072;9.770;2022-08-21T07:36:21;3.78;;;3.40;;
8423;SDS011;4249;49.072;9.770;2022-08-21T07:39:09;4.07;;;3.67;;
8423;SDS011;4249;49.072;9.770;2022-08-21T07:41:56;4.97;;;3.47;;
8423;SDS011;4249;49.072;9.770;2022-08-21T07:44:43;4.30;;;3.83;;
8423;SDS011;4249;49.072;9.770;2022-08-21T07:47:30;4.47;;;3.47;;
8423;SDS011;4249;49.072;9.770;2022-08-21T07:50:19;5.57;;;3.65;;
8423;SDS011;4249;49.072;9.770;2022-08-21T07:53:06;6.80;;;3.70;;
8423;SDS011;4249;49.072;9.770;2022-08-21T07:55:56;4.97;;;3.50;;
8423;SDS011;4249;49.072;9.770;2022-08-21T07:58:43;7.18;;;3.78;;
8423;SDS011;4249;49.072;9.770;2022-08-21T08:01:31;4.55;;;3.28;;
8423;SDS011;4249;49.072;9.770;2022-08-21T08:04:18;5.70;;;4.00;;
8423;SDS011;4249;49.072;9.770;2022-08-21T08:07:07;5.32;;;4.82;;
8423;SDS011;4249;49.072;9.770;2022-08-21T08:09:54;8.63;;;4.32;;
8423;SDS011;4249;49.072;9.770;2022-08-21T08:12:42;5.85;;;4.82;;
8423;SDS011;4249;49.072;9.770;2022-08-21T08:15:30;7.38;;;4.75;;
8423;SDS011;4249;49.072;9.770;2022-08-21T08:18:18;7.28;;;5.53;;
8423;SDS011;4249;49.072;9.770;2022-08-21T08:21:05;7.40;;;5.13;;
8423;SDS011;4249;49.072;9.770;2022-08-21T08:23:54;7.78;;;6.05;;
8423;SDS011;4249;49.072;9.770;2022-08-21T08:26:41;5.88;;;5.28;;
8423;SDS011;4249;49.072;9.770;2022-08-21T08:29:28;8.38;;;5.97;;
8423;SDS011;4249;49.072;9.770;2022-08-21T08:32:16;10.57;;;6.07;;
8423;SDS011;4249;49.072;9.770;2022-08-21T08:35:04;6.85;;;6.22;;
8423;SDS011;4249;49.072;9.770;2022-08-21T08:37:53;13.18;;;5.78;;
8423;SDS011;4249;49.072;9.770;2022-08-21T08:40:43;8.90;;;7.18;;
8423;SDS011;4249;49.072;9.770;2022-08-21T08:43:33;7.70;;;5.97;;
8423;SDS011;4249;49.072;9.770;2022-08-21T08:46:23;8.23;;;6.55;;
8423;SDS011;4249;49.072;9.770;2022-08-21T08:49:19;10.93;;;5.95;;
8423;SDS011;4249;49.072;9.770;2022-08-21T08:52:11;8.75;;;7.57;;
8423;SDS011;4249;49.072;9.770;2022-08-21T08:55:08;11.07;;;8.02;;
8423;SDS011;4249;49.072;9.770;2022-08-21T08:58:01;9.13;;;6.80;;
8423;SDS011;4249;49.072;9.770;2022-08-21T09:00:49;6.35;;;5.60;;
8423;SDS011;4249;49.072;9.770;2022-08-21T09:03:38;9.25;;;6.32;;
8423;SDS011;4249;49.072;9.770;2022-08-21T09:06:37;8.48;;;6.90;;
8423;SDS011;4249;49.072;9.770;2022-08-21T09:09:36;8.75;;;6.10;;
8423;SDS011;4249;49.072;9.770;2022-08-21T09:12:33;11.15;;;7.32;;
8423;SDS011;4249;49.072;9.770;2022-08-21T09:15:33;9.10;;;6.35;;
8423;SDS011;4249;49.072;9.770;2022-08-21T09:18:33;6.60;;;5.68;;
8423;SDS011;4249;49.072;9.770;2022-08-21T09:21:31;6.55;;;5.85;;
8423;SDS011;4249;49.072;9.770;2022-08-21T09:24:29;8.07;;;5.97;;
8423;SDS011;4249;49.072;9.770;2022-08-21T09:27:19;6.40;;;5.63;;
8423;SDS011;4249;49.072;9.770;2022-08-21T09:30:07;8.80;;;5.40;;
8423;SDS011;4249;49.072;9.770;2022-08-21T09:32:57;9.32;;;5.85;;
8423;SDS011;4249;49.072;9.770;2022-08-21T09:35:48;9.30;;;5.35;;
8423;SDS011;4249;49.072;9.770;2022-08-21T09:38:38;7.10;;;5.32;;
8423;SDS011;4249;49.072;9.770;2022-08-21T09:41:26;9.95;;;5.38;;
8423;SDS011;4249;49.072;9.770;2022-08-21T09:44:23;7.70;;;4.65;;
8423;SDS011;4249;49.072;9.770;2022-08-21T09:47:12;5.80;;;4.10;;
8423;SDS011;4249;49.072;9.770;2022-08-21T09:50:08;5.10;;;3.97;;
8423;SDS011;4249;49.072;9.770;2022-08-21T09:52:58;7.28;;;4.88;;
8423;SDS011;4249;49.072;9.770;2022-08-21T09:55:47;7.75;;;4.68;;
8423;SDS011;4249;49.072;9.770;2022-08-21T09:58:56;7.13;;;4.82;;
8423;SDS011;4249;49.072;9.770;2022-08-21T10:01:43;8.73;;;4.95;;
8423;SDS011;4249;49.072;9.770;2022-08-21T10:04:33;8.93;;;4.55;;
8423;SDS011;4249;49.072;9.770;2022-08-21T10:07:24;6.15;;;4.45;;
8423;SDS011;4249;49.072;9.770;2022-08-21T10:10:15;8.88;;;5.00;;
8423;SDS011;4249;49.072;9.770;2022-08-21T10:13:08;6.38;;;4.30;;
8423;SDS011;4249;49.072;9.770;2022-08-21T10:16:04;8.05;;;4.05;;
8423;SDS011;4249;49.072;9.770;2022-08-21T10:19:02;5.68;;;3.65;;
8423;SDS011;4249;49.072;9.770;2022-08-21T10:22:10;5.65;;;4.47;;
8423;SDS011;4249;49.072;9.770;2022-08-21T10:25:11;8.73;;;4.80;;
8423;SDS011;4249;49.072;9.770;2022-08-21T10:28:09;6.32;;;4.43;;
8423;SDS011;4249;49.072;9.770;2022-08-21T10:31:08;6.15;;;4.38;;
8423;SDS011;4249;49.072;9.770;2022-08-21T10:34:04;9.38;;;4.60;;
8423;SDS011;4249;49.072;9.770;2022-08-21T10:37:01;5.03;;;4.50;;
8423;SDS011;4249;49.072;9.770;2022-08-21T10:40:02;5.95;;;4.15;;
8423;SDS011;4249;49.072;9.770;2022-08-21T10:43:02;6.13;;;4.53;;
8423;SDS011;4249;49.072;9.770;2022-08-21T10:46:01;3.92;;;3.47;;
8423;SDS011;4249;49.072;9.770;2022-08-21T10:48:56;6.47;;;4.07;;
8423;SDS011;4249;49.072;9.770;2022-08-21T10:51:27;6.13;;;4.10;;
8423;SDS011;4249;49.072;9.770;2022-08-21T10:54:00;7.28;;;3.67;;
8423;SDS011;4249;49.072;9.770;2022-08-21T10:56:36;6.68;;;3.90;;
8423;SDS011;4249;49.072;9.770;2022-08-21T10:59:16;6.10;;;3.83;;
8423;SDS011;4249;49.072;9.770;2022-08-21T11:01:53;6.10;;;3.75;;
8423;SDS011;4249;49.072;9.770;2022-08-21T11:04:26;4.20;;;3.28;;
8423;SDS011;4249;49.072;9.770;2022-08-21T11:07:00;4.13;;;3.47;;
8423;SDS011;4249;49.072;9.770;2022-08-21T11:09:30;5.97;;;3.42;;
8423;SDS011;4249;49.072;9.770;2022-08-21T11:12:00;4.65;;;3.60;;
8423;SDS011;4249;49.072;9.770;2022-08-21T11:14:34;6.30;;;3.70;;
8423;SDS011;4249;49.072;9.770;2022-08-21T11:17:07;5.00;;;3.30;;
8423;SDS011;4249;49.072;9.770;2022-08-21T11:19:37;5.47;;;3.30;;
8423;SDS011;4249;49.072;9.770;2022-08-21T11:22:28;5.53;;;3.50;;
8423;SDS011;4249;49.072;9.770;2022-08-21T11:25:26;7.53;;;3.47;;
8423;SDS011;4249;49.072;9.770;2022-08-21T11:28:32;5.32;;;3.40;;
8423;SDS011;4249;49.072;9.770;2022-08-21T11:31:26;6.28;;;3.42;;
8423;SDS011;4249;49.072;9.770;2022-08-21T11:34:38;6.70;;;3.38;;
8423;SDS011;4249;49.072;9.770;2022-08-21T11:37:38;5.93;;;3.40;;
8423;SDS011;4249;49.072;9.770;2022-08-21T11:40:39;5.93;;;3.15;;
8423;SDS011;4249;49.072;9.770;2022-08-21T11:43:41;5.78;;;3.33;;
8423;SDS011;4249;49.072;9.770;2022-08-21T11:46:31;6.65;;;3.70;;
8423;SDS011;4249;49.072;9.770;2022-08-21T11:52:37;4.13;;;2.95;;
8423;SDS011;4249;49.072;9.770;2022-08-21T11:55:28;8.15;;;3.08;;
8423;SDS011;4249;49.072;9.770;2022-08-21T11:58:24;7.43;;;3.22;;
8423;SDS011;4249;49.072;9.770;2022-08-21T12:01:16;6.18;;;3.22;;
8423;SDS011;4249;49.072;9.770;2022-08-21T12:04:08;4.65;;;3.10;;
8423;SDS011;4249;49.072;9.770;2022-08-21T12:07:10;6.88;;;3.15;;
8423;SDS011;4249;49.072;9.770;2022-08-21T12:09:58;6.00;;;3.47;;
8423;SDS011;4249;49.072;9.770;2022-08-21T12:12:46;5.93;;;3.20;;
8423;SDS011;4249;49.072;9.770;2022-08-21T12:15:34;7.82;;;3.47;;
8423;SDS011;4249;49.072;9.770;2022-08-21T12:18:27;6.63;;;3.30;;
8423;SDS011;4249;49.072;9.770;2022-08-21T12:21:19;7.60;;;3.55;;
8423;SDS011;4249;49.072;9.770;2022-08-21T12:24:16;18.30;;;4.22;;
8423;SDS011;4249;49.072;9.770;2022-08-21T12:27:13;4.68;;;3.30;;
8423;SDS011;4249;49.072;9.770;2022-08-21T12:30:19;4.72;;;3.17;;
8423;SDS011;4249;49.072;9.770;2022-08-21T12:33:18;6.75;;;3.10;;
8423;SDS011;4249;49.072;9.770;2022-08-21T12:36:11;4.10;;;3.33;;
8423;SDS011;4249;49.072;9.770;2022-08-21T12:39:03;7.68;;;3.53;;
8423;SDS011;4249;49.072;9.770;2022-08-21T12:41:58;4.93;;;2.90;;
8423;SDS011;4249;49.072;9.770;2022-08-21T12:44:50;5.72;;;3.08;;
8423;SDS011;4249;49.072;9.770;2022-08-21T12:47:43;6.03;;;3.03;;
8423;SDS011;4249;49.072;9.770;2022-08-21T12:50:36;4.55;;;2.72;;
8423;SDS011;4249;49.072;9.770;2022-08-21T12:53:28;6.18;;;2.95;;
8423;SDS011;4249;49.072;9.770;2022-08-21T12:56:21;4.93;;;3.55;;
8423;SDS011;4249;49.072;9.770;2022-08-21T12:59:11;5.28;;;2.80;;
8423;SDS011;4249;49.072;9.770;2022-08-21T13:01:59;5.57;;;3.03;;
8423;SDS011;4249;49.072;9.770;2022-08-21T13:04:50;3.53;;;2.40;;
8423;SDS011;4249;49.072;9.770;2022-08-21T13:07:38;4.75;;;3.28;;
8423;SDS011;4249;49.072;9.770;2022-08-21T13:10:33;4.15;;;2.95;;
8423;SDS011;4249;49.072;9.770;2022-08-21T13:13:24;7.22;;;3.17;;
8423;SDS011;4249;49.072;9.770;2022-08-21T13:16:13;4.15;;;2.80;;
8423;SDS011;4249;49.072;9.770;2022-08-21T13:19:07;4.70;;;3.30;;
8423;SDS011;4249;49.072;9.770;2022-08-21T13:21:58;4.80;;;2.97;;
8423;SDS011;4249;49.072;9.770;2022-08-21T13:24:47;5.68;;;3.28;;
8423;SDS011;4249;49.072;9.770;2022-08-21T13:27:36;5.00;;;2.90;;
8423;SDS011;4249;49.072;9.770;2022-08-21T13:30:23;5.47;;;3.20;;
8423;SDS011;4249;49.072;9.770;2022-08-21T13:33:12;5.35;;;3.03;;
8423;SDS011;4249;49.072;9.770;2022-08-21T13:36:03;3.03;;;2.70;;
8423;SDS011;4249;49.072;9.770;2022-08-21T13:38:54;5.35;;;3.08;;
8423;SDS011;4249;49.072;9.770;2022-08-21T13:41:43;7.03;;;3.22;;
8423;SDS011;4249;49.072;9.770;2022-08-21T13:44:35;5.32;;;2.97;;
8423;SDS011;4249;49.072;9.770;2022-08-21T13:47:26;5.13;;;3.03;;
8423;SDS011;4249;49.072;9.770;2022-08-21T13:50:14;3.67;;;3.00;;
8423;SDS011;4249;49.072;9.770;2022-08-21T13:53:03;4.43;;;2.95;;
8423;SDS011;4249;49.072;9.770;2022-08-21T13:56:06;3.90;;;2.72;;
8423;SDS011;4249;49.072;9.770;2022-08-21T13:58:54;5.18;;;3.15;;
8423;SDS011;4249;49.072;9.770;2022-08-21T14:01:49;3.45;;;2.90;;
8423;SDS011;4249;49.072;9.770;2022-08-21T14:04:42;3.85;;;2.90;;
8423;SDS011;4249;49.072;9.770;2022-08-21T14:07:34;3.38;;;2.63;;
8423;SDS011;4249;49.072;9.770;2022-08-21T14:10:24;6.40;;;3.10;;
8423;SDS011;4249;49.072;9.770;2022-08-21T14:13:23;5.53;;;3.03;;
8423;SDS011;4249;49.072;9.770;2022-08-21T14:16:20;7.72;;;3.30;;
8423;SDS011;4249;49.072;9.770;2022-08-21T14:19:19;3.45;;;2.90;;
8423;SDS011;4249;49.072;9.770;2022-08-21T14:22:28;5.28;;;2.90;;
8423;SDS011;4249;49.072;9.770;2022-08-21T14:25:26;3.92;;;2.90;;
8423;SDS011;4249;49.072;9.770;2022-08-21T14:28:19;4.40;;;2.85;;
8423;SDS011;4249;49.072;9.770;2022-08-21T14:31:12;2.83;;;2.58;;
8423;SDS011;4249;49.072;9.770;2022-08-21T14:34:01;4.15;;;3.13;;
8423;SDS011;4249;49.072;9.770;2022-08-21T14:36:50;3.65;;;2.80;;
8423;SDS011;4249;49.072;9.770;2022-08-21T14:39:38;4.10;;;2.97;;
8423;SDS011;4249;49.072;9.770;2022-08-21T14:42:25;4.88;;;3.10;;
8423;SDS011;4249;49.072;9.770;2022-08-21T14:45:13;3.95;;;2.55;;
8423;SDS011;4249;49.072;9.770;2022-08-21T14:48:03;6.60;;;3.05;;
8423;SDS011;4249;49.072;9.770;2022-08-21T14:50:50;6.70;;;3.00;;
8423;SDS011;4249;49.072;9.770;2022-08-21T14:53:39;4.53;;;3.10;;
8423;SDS011;4249;49.072;9.770;2022-08-21T14:56:27;4.82;;;3.25;;
8423;SDS011;4249;49.072;9.770;2022-08-21T14:59:14;7.55;;;3.40;;
8423;SDS011;4249;49.072;9.770;2022-08-21T15:02:01;3.63;;;2.67;;
8423;SDS011;4249;49.072;9.770;2022-08-21T15:04:50;3.40;;;2.60;;
8423;SDS011;4249;49.072;9.770;2022-08-21T15:07:37;3.83;;;2.63;;
8423;SDS011;4249;49.072;9.770;2022-08-21T15:10:26;3.40;;;2.80;;
8423;SDS011;4249;49.072;9.770;2022-08-21T15:13:13;4.72;;;3.20;;
8423;SDS011;4249;49.072;9.770;2022-08-21T15:16:01;3.88;;;3.03;;
8423;SDS011;4249;49.072;9.770;2022-08-21T15:18:49;4.65;;;2.97;;
8423;SDS011;4249;49.072;9.770;2022-08-21T15:21:36;3.67;;;2.90;;
8423;SDS011;4249;49.072;9.770;2022-08-21T15:24:23;2.97;;;2.67;;
8423;SDS011;4249;49.072;9.770;2022-08-21T15:27:12;5.25;;;2.70;;
8423;SDS011;4249;49.072;9.770;2022-08-21T15:30:01;3.47;;;2.67;;
8423;SDS011;4249;49.072;9.770;2022-08-21T15:32:48;4.63;;;3.28;;
8423;SDS011;4249;49.072;9.770;2022-08-21T15:35:35;3.88;;;2.95;;
8423;SDS011;4249;49.072;9.770;2022-08-21T15:38:25;3.20;;;2.53;;
8423;SDS011;4249;49.072;9.770;2022-08-21T15:41:12;4.22;;;2.80;;
8423;SDS011;4249;49.072;9.770;2022-08-21T15:44:02;3.47;;;2.72;;
8423;SDS011;4249;49.072;9.770;2022-08-21T15:46:50;3.47;;;2.78;;
8423;SDS011;4249;49.072;9.770;2022-08-21T15:49:38;5.28;;;2.95;;
8423;SDS011;4249;49.072;9.770;2022-08-21T15:52:26;3.22;;;2.45;;
8423;SDS011;4249;49.072;9.770;2022-08-21T15:55:14;4.05;;;2.90;;
8423;SDS011;4249;49.072;9.770;2022-08-21T15:58:01;3.70;;;2.53;;
8423;SDS011;4249;49.072;9.770;2022-08-21T16:00:52;5.97;;;3.08;;
8423;SDS011;4249;49.072;9.770;2022-08-21T16:03:47;3.45;;;2.33;;
8423;SDS011;4249;49.072;9.770;2022-08-21T16:06:36;6.63;;;3.08;;
8423;SDS011;4249;49.072;9.770;2022-08-21T16:09:23;3.75;;;2.75;;
8423;SDS011;4249;49.072;9.770;2022-08-21T16:12:19;3.97;;;2.78;;
8423;SDS011;4249;49.072;9.770;2022-08-21T16:15:10;4.53;;;2.58;;
8423;SDS011;4249;49.072;9.770;2022-08-21T16:18:00;3.58;;;2.70;;
8423;SDS011;4249;49.072;9.770;2022-08-21T16:20:48;5.72;;;2.80;;
8423;SDS011;4249;49.072;9.770;2022-08-21T16:23:35;4.38;;;2.90;;
8423;SDS011;4249;49.072;9.770;2022-08-21T16:26:25;3.67;;;2.60;;
8423;SDS011;4249;49.072;9.770;2022-08-21T16:29:13;3.15;;;2.47;;
8423;SDS011;4249;49.072;9.770;2022-08-21T16:32:00;4.05;;;2.67;;
8423;SDS011;4249;49.072;9.770;2022-08-21T16:34:50;5.38;;;3.45;;
8423;SDS011;4249;49.072;9.770;2022-08-21T16:37:38;2.92;;;2.42;;
8423;SDS011;4249;49.072;9.770;2022-08-21T16:40:25;3.70;;;2.70;;
8423;SDS011;4249;49.072;9.770;2022-08-21T16:43:13;6.65;;;2.83;;
8423;SDS011;4249;49.072;9.770;2022-08-21T16:46:01;4.45;;;3.00;;
8423;SDS011;4249;49.072;9.770;2022-08-21T16:48:49;5.80;;;3.28;;
8423;SDS011;4249;49.072;9.770;2022-08-21T16:51:37;3.80;;;2.60;;
8423;SDS011;4249;49.072;9.770;2022-08-21T16:54:25;4.93;;;3.05;;
8423;SDS011;4249;49.072;9.770;2022-08-21T16:57:12;4.95;;;2.85;;
8423;SDS011;4249;49.072;9.770;2022-08-21T16:59:59;2.90;;;2.63;;
8423;SDS011;4249;49.072;9.770;2022-08-21T17:02:50;2.50;;;2.30;;
8423;SDS011;4249;49.072;9.770;2022-08-21T17:05:40;3.67;;;2.65;;
8423;SDS011;4249;49.072;9.770;2022-08-21T17:08:28;3.28;;;2.92;;
8423;SDS011;4249;49.072;9.770;2022-08-21T17:10:55;3.22;;;2.42;;
8423;SDS011;4249;49.072;9.770;2022-08-21T17:13:23;3.67;;;2.75;;
8423;SDS011;4249;49.072;9.770;2022-08-21T17:15:51;3.83;;;2.90;;
8423;SDS011;4249;49.072;9.770;2022-08-21T17:18:19;3.05;;;2.72;;
8423;SDS011;4249;49.072;9.770;2022-08-21T17:20:47;4.45;;;2.72;;
8423;SDS011;4249;49.072;9.770;2022-08-21T17:23:15;3.45;;;3.10;;
8423;SDS011;4249;49.072;9.770;2022-08-21T17:25:47;3.35;;;3.05;;
8423;SDS011;4249;49.072;9.770;2022-08-21T17:28:19;3.60;;;2.80;;
8423;SDS011;4249;49.072;9.770;2022-08-21T17:31:07;3.42;;;2.67;;
8423;SDS011;4249;49.072;9.770;2022-08-21T17:33:55;4.85;;;3.00;;